Time;durP1;ratioP1;P1;durP2;ratioP2;P2;SDS_P1;SDS_P2;PMS_P1;PMS_P2;Temp;Humidity;BMP_temperature;BMP_pressure;BME280_temperature;BME280_humidity;BME280_pressure;Samples;Min_cycle;Max_cycle;Signal;HPM_P1;HPM_P2
2021/12/10 00:01:01;;;;;;;44.43;33.23;;;;;;;;;;5050106;28;24490;-59
2021/12/10 00:03:35;;;;;;;44.60;33.60;;;;;;;;;;5049002;28;25000;-59
2021/12/10 00:06:04;;;;;;;44.03;32.85;;;;;;;;;;5051597;28;24459;-58
2021/12/10 00:08:31;;;;;;;47.70;34.38;;;;;;;;;;5047857;28;25097;-58
2021/12/10 00:10:57;;;;;;;42.35;31.90;;;;;;;;;;5051414;28;24477;-57
2021/12/10 00:13:23;;;;;;;42.75;31.83;;;;;;;;;;5056750;28;24419;-57
2021/12/10 00:15:51;;;;;;;44.25;32.95;;;;;;;;;;5042198;28;24739;-57
2021/12/10 00:18:17;;;;;;;46.53;32.75;;;;;;;;;;5059297;28;24968;-58
2021/12/10 00:20:43;;;;;;;44.33;33.60;;;;;;;;;;5059775;28;24407;-60
2021/12/10 00:23:12;;;;;;;44.80;31.73;;;;;;;;;;5051836;28;24403;-59
2021/12/10 00:25:39;;;;;;;42.20;30.63;;;;;;;;;;5052416;28;24420;-57
2021/12/10 00:28:16;;;;;;;46.13;32.37;;;;;;;;;;5053650;28;25232;-58
2021/12/10 00:30:56;;;;;;;43.40;32.05;;;;;;;;;;5055030;28;24558;-57
2021/12/10 00:33:24;;;;;;;41.33;31.38;;;;;;;;;;5051581;28;25069;-57
2021/12/10 00:35:50;;;;;;;40.77;30.27;;;;;;;;;;5059532;28;24477;-57
2021/12/10 00:38:15;;;;;;;40.07;30.47;;;;;;;;;;5057465;28;24539;-57
2021/12/10 00:40:41;;;;;;;41.07;31.30;;;;;;;;;;5058360;28;24951;-59
2021/12/10 00:43:06;;;;;;;47.08;34.65;;;;;;;;;;5046019;28;24473;-59
2021/12/10 00:45:31;;;;;;;42.33;31.10;;;;;;;;;;5043733;28;24780;-59
2021/12/10 00:47:56;;;;;;;36.40;27.95;;;;;;;;;;5053108;28;24476;-59
2021/12/10 00:50:25;;;;;;;42.87;31.40;;;;;;;;;;5057182;28;25700;-59
2021/12/10 00:52:51;;;;;;;41.50;31.57;;;;;;;;;;5048956;28;24509;-59
2021/12/10 00:55:16;;;;;;;39.90;28.47;;;;;;;;;;5058967;28;25041;-59
2021/12/10 00:57:41;;;;;;;39.10;29.70;;;;;;;;;;5054019;28;24479;-59
2021/12/10 01:00:09;;;;;;;36.70;28.57;;;;;;;;;;5059505;28;24413;-59
2021/12/10 01:02:34;;;;;;;38.83;28.80;;;;;;;;;;5057276;28;24542;-59
2021/12/10 01:05:00;;;;;;;37.83;28.57;;;;;;;;;;5054242;28;24426;-59
2021/12/10 01:07:28;;;;;;;36.65;27.30;;;;;;;;;;5046752;28;24545;-60
2021/12/10 01:09:55;;;;;;;34.85;27.45;;;;;;;;;;5055837;28;24653;-59
2021/12/10 01:12:23;;;;;;;36.97;28.73;;;;;;;;;;5055755;28;24423;-60
2021/12/10 01:15:07;;;;;;;36.25;27.77;;;;;;;;;;5059347;28;24948;-59
2021/12/10 01:26:06;;;;;;;36.75;27.67;;;;;;;;;;5063587;28;24410;-57
2021/12/10 01:28:31;;;;;;;33.40;26.55;;;;;;;;;;5052297;28;24426;-59
2021/12/10 01:30:56;;;;;;;34.42;26.77;;;;;;;;;;5048345;28;24433;-60
2021/12/10 01:33:21;;;;;;;31.87;25.40;;;;;;;;;;5056749;28;24439;-60
2021/12/10 01:35:49;;;;;;;31.85;25.58;;;;;;;;;;5063208;28;24502;-60
2021/12/10 01:38:14;;;;;;;32.45;26.30;;;;;;;;;;5053307;28;24853;-57
2021/12/10 01:40:41;;;;;;;33.50;26.08;;;;;;;;;;5061318;28;25089;-57
2021/12/10 01:43:08;;;;;;;30.40;24.50;;;;;;;;;;5054956;28;24422;-58
2021/12/10 01:45:35;;;;;;;30.40;24.75;;;;;;;;;;5059400;28;25027;-57
2021/12/10 01:48:08;;;;;;;30.60;24.35;;;;;;;;;;5058423;28;24489;-58
2021/12/10 01:50:37;;;;;;;28.65;24.08;;;;;;;;;;5064839;28;24419;-58
2021/12/10 01:53:04;;;;;;;29.60;23.65;;;;;;;;;;5049776;28;24430;-58
2021/12/10 01:55:31;;;;;;;30.38;23.63;;;;;;;;;;5049266;28;24865;-58
2021/12/10 01:57:57;;;;;;;28.42;23.08;;;;;;;;;;5057228;28;24434;-57
2021/12/10 02:00:25;;;;;;;29.05;24.80;;;;;;;;;;5052444;28;25017;-58
2021/12/10 02:02:50;;;;;;;36.47;28.15;;;;;;;;;;5057995;28;24468;-57
2021/12/10 02:05:16;;;;;;;32.03;25.23;;;;;;;;;;5051105;28;24403;-58
2021/12/10 02:07:41;;;;;;;28.33;23.23;;;;;;;;;;5058555;28;24430;-58
2021/12/10 02:10:08;;;;;;;30.83;24.50;;;;;;;;;;5054094;28;24420;-59
2021/12/10 02:12:33;;;;;;;28.48;24.05;;;;;;;;;;5059064;28;24426;-59
2021/12/10 02:15:01;;;;;;;28.48;24.00;;;;;;;;;;5056296;28;24766;-58
2021/12/10 02:17:28;;;;;;;30.35;24.33;;;;;;;;;;5062831;28;24883;-58
2021/12/10 02:19:53;;;;;;;29.20;23.80;;;;;;;;;;5055601;28;25006;-58
2021/12/10 02:22:18;;;;;;;27.58;23.08;;;;;;;;;;5065588;28;24387;-58
2021/12/10 02:24:44;;;;;;;26.63;22.10;;;;;;;;;;5061482;28;24403;-59
2021/12/10 02:27:09;;;;;;;27.50;22.77;;;;;;;;;;5064467;28;25350;-58
2021/12/10 02:29:36;;;;;;;28.33;23.20;;;;;;;;;;5060160;28;24406;-58
2021/12/10 02:32:01;;;;;;;27.95;22.90;;;;;;;;;;5056912;28;24407;-58
2021/12/10 02:34:27;;;;;;;26.10;21.90;;;;;;;;;;5054074;28;24817;-58
2021/12/10 02:36:52;;;;;;;26.03;21.70;;;;;;;;;;5060232;28;24423;-59
2021/12/10 02:39:19;;;;;;;26.35;21.85;;;;;;;;;;5059699;28;24503;-59
2021/12/10 02:41:45;;;;;;;26.25;22.70;;;;;;;;;;5057393;28;24412;-59
2021/12/10 02:44:12;;;;;;;27.33;22.00;;;;;;;;;;5056257;28;24528;-58
2021/12/10 02:46:37;;;;;;;27.50;22.00;;;;;;;;;;5060917;28;24482;-59
2021/12/10 02:49:03;;;;;;;27.17;21.00;;;;;;;;;;5064091;28;25022;-59
2021/12/10 02:51:28;;;;;;;27.90;22.70;;;;;;;;;;5062115;28;24438;-58
2021/12/10 02:53:54;;;;;;;27.70;21.93;;;;;;;;;;5053441;28;24415;-60
2021/12/10 02:56:20;;;;;;;26.27;21.30;;;;;;;;;;5059570;28;25022;-58
2021/12/10 02:58:47;;;;;;;27.80;22.38;;;;;;;;;;5059706;28;24538;-59
2021/12/10 03:01:15;;;;;;;26.08;21.60;;;;;;;;;;5052290;28;24476;-59
2021/12/10 03:03:41;;;;;;;25.98;21.15;;;;;;;;;;5059691;28;24943;-59
2021/12/10 03:06:10;;;;;;;26.48;21.95;;;;;;;;;;5056857;28;24521;-59
2021/12/10 03:08:36;;;;;;;25.25;21.20;;;;;;;;;;5049894;28;24423;-59
2021/12/10 03:11:01;;;;;;;26.77;21.60;;;;;;;;;;5046142;28;24476;-59
2021/12/10 03:13:27;;;;;;;25.43;21.03;;;;;;;;;;5062096;28;24430;-59
2021/12/10 03:15:52;;;;;;;26.67;21.73;;;;;;;;;;5058039;28;24417;-59
2021/12/10 03:18:18;;;;;;;26.42;21.98;;;;;;;;;;5060183;28;24438;-59
2021/12/10 03:20:44;;;;;;;26.30;21.00;;;;;;;;;;5058015;28;24411;-59
2021/12/10 03:23:11;;;;;;;28.93;22.80;;;;;;;;;;5058795;28;24415;-59
2021/12/10 03:25:36;;;;;;;30.48;22.70;;;;;;;;;;5053946;28;24548;-59
2021/12/10 03:28:01;;;;;;;27.50;21.70;;;;;;;;;;5061668;28;24501;-59
2021/12/10 03:30:28;;;;;;;28.57;21.90;;;;;;;;;;5055371;28;24438;-59
2021/12/10 03:32:54;;;;;;;27.88;21.80;;;;;;;;;;5060373;28;24434;-59
2021/12/10 03:35:22;;;;;;;26.58;21.10;;;;;;;;;;5051025;28;24457;-59
2021/12/10 03:37:48;;;;;;;27.65;21.30;;;;;;;;;;5060955;28;24900;-59
2021/12/10 03:40:14;;;;;;;26.70;21.50;;;;;;;;;;5054870;28;24412;-60
2021/12/10 03:42:39;;;;;;;28.08;22.60;;;;;;;;;;5044061;28;24554;-59
2021/12/10 03:45:06;;;;;;;26.37;20.70;;;;;;;;;;5046058;28;25118;-59
2021/12/10 03:47:31;;;;;;;27.00;21.00;;;;;;;;;;5056218;28;24422;-59
2021/12/10 03:49:56;;;;;;;27.77;21.20;;;;;;;;;;5058000;28;24468;-59
2021/12/10 03:52:21;;;;;;;26.33;21.00;;;;;;;;;;5061560;28;24773;-58
2021/12/10 03:54:47;;;;;;;25.03;19.87;;;;;;;;;;5056716;28;24978;-58
2021/12/10 03:57:12;;;;;;;24.30;19.17;;;;;;;;;;5058828;28;24773;-59
2021/12/10 03:59:37;;;;;;;23.60;19.40;;;;;;;;;;5047957;28;24462;-58
2021/12/10 04:02:04;;;;;;;24.45;19.60;;;;;;;;;;5056988;28;24762;-59
2021/12/10 04:04:31;;;;;;;25.00;19.85;;;;;;;;;;5053548;28;24442;-59
2021/12/10 04:06:56;;;;;;;24.27;19.73;;;;;;;;;;5057402;28;24418;-59
2021/12/10 04:09:23;;;;;;;27.42;20.20;;;;;;;;;;5053449;28;24580;-59
2021/12/10 04:11:48;;;;;;;22.95;18.83;;;;;;;;;;5049696;28;24497;-59
2021/12/10 04:14:13;;;;;;;23.30;18.67;;;;;;;;;;5056512;28;25070;-58
2021/12/10 04:16:38;;;;;;;21.97;17.80;;;;;;;;;;5048024;28;24431;-59
2021/12/10 04:19:06;;;;;;;20.58;17.45;;;;;;;;;;5054933;28;24433;-59
2021/12/10 04:21:31;;;;;;;21.43;18.17;;;;;;;;;;5048311;28;24831;-59
2021/12/10 04:23:56;;;;;;;21.10;17.30;;;;;;;;;;5058186;28;24429;-59
2021/12/10 04:26:24;;;;;;;20.00;17.80;;;;;;;;;;5061102;28;24453;-58
2021/12/10 04:28:50;;;;;;;18.58;16.20;;;;;;;;;;5061318;28;24955;-58
2021/12/10 04:31:15;;;;;;;18.77;16.33;;;;;;;;;;5056858;28;24759;-59
2021/12/10 04:33:40;;;;;;;19.57;16.30;;;;;;;;;;5051269;28;24540;-59
2021/12/10 04:36:07;;;;;;;19.07;16.47;;;;;;;;;;5053042;28;24525;-60
2021/12/10 04:38:33;;;;;;;17.88;15.63;;;;;;;;;;5057398;28;24505;-59
2021/12/10 04:41:00;;;;;;;17.75;15.35;;;;;;;;;;5056503;28;24418;-60
2021/12/10 04:43:26;;;;;;;18.80;16.37;;;;;;;;;;5055200;28;24448;-60
2021/12/10 04:45:53;;;;;;;17.30;15.27;;;;;;;;;;5056905;28;24406;-60
2021/12/10 04:48:18;;;;;;;18.70;16.13;;;;;;;;;;5053546;28;25147;-60
2021/12/10 04:50:43;;;;;;;18.17;16.07;;;;;;;;;;5061170;28;24454;-60
2021/12/10 04:53:09;;;;;;;16.95;14.95;;;;;;;;;;5058761;28;24790;-60
2021/12/10 04:55:35;;;;;;;17.00;15.20;;;;;;;;;;5056323;28;24687;-59
2021/12/10 04:58:00;;;;;;;16.93;15.13;;;;;;;;;;5055984;28;25171;-61
2021/12/10 05:00:27;;;;;;;19.08;16.30;;;;;;;;;;5061347;28;24526;-61
2021/12/10 05:02:53;;;;;;;18.75;16.38;;;;;;;;;;5055673;28;24461;-61
2021/12/10 05:05:18;;;;;;;18.37;15.40;;;;;;;;;;5056136;28;25029;-60
2021/12/10 05:07:44;;;;;;;17.43;14.37;;;;;;;;;;5045962;28;24451;-59
2021/12/10 05:10:10;;;;;;;16.83;15.02;;;;;;;;;;5047175;28;24825;-59
2021/12/10 05:12:35;;;;;;;16.98;14.70;;;;;;;;;;5050824;28;24995;-59
2021/12/10 05:15:02;;;;;;;17.03;15.23;;;;;;;;;;5048740;28;24415;-59
2021/12/10 05:17:29;;;;;;;17.65;15.30;;;;;;;;;;5056176;28;24429;-59
2021/12/10 05:19:55;;;;;;;17.58;15.43;;;;;;;;;;5053629;28;24895;-59
2021/12/10 05:22:20;;;;;;;20.15;16.35;;;;;;;;;;5058783;28;24422;-59
2021/12/10 05:24:45;;;;;;;18.13;15.80;;;;;;;;;;5057401;28;24429;-59
2021/12/10 05:27:11;;;;;;;18.70;16.80;;;;;;;;;;5054080;28;24506;-59
2021/12/10 05:29:36;;;;;;;20.40;17.70;;;;;;;;;;5050695;28;24528;-59
2021/12/10 05:32:03;;;;;;;21.20;18.10;;;;;;;;;;5058448;28;24438;-62
2021/12/10 05:34:28;;;;;;;16.50;14.70;;;;;;;;;;5058088;28;24549;-60
2021/12/10 05:36:53;;;;;;;23.03;18.50;;;;;;;;;;5053458;28;24833;-59
2021/12/10 05:39:22;;;;;;;21.43;17.03;;;;;;;;;;5055523;28;24463;-59
2021/12/10 05:41:48;;;;;;;19.38;15.95;;;;;;;;;;5052341;28;24868;-59
2021/12/10 05:44:13;;;;;;;15.90;14.30;;;;;;;;;;5057873;28;24498;-59
2021/12/10 05:46:39;;;;;;;16.50;14.60;;;;;;;;;;5058678;28;24418;-59
2021/12/10 05:49:05;;;;;;;15.25;13.75;;;;;;;;;;5056818;28;24411;-59
2021/12/10 05:51:30;;;;;;;16.92;14.63;;;;;;;;;;5050963;28;24421;-60
2021/12/10 05:53:55;;;;;;;16.64;14.40;;;;;;;;;;5055224;28;24446;-60
2021/12/10 05:56:21;;;;;;;16.03;14.43;;;;;;;;;;5057288;28;24408;-59
2021/12/10 05:58:46;;;;;;;15.70;14.00;;;;;;;;;;5058529;28;24415;-59
2021/12/10 06:01:14;;;;;;;15.23;13.73;;;;;;;;;;5057467;28;24472;-59
2021/12/10 06:03:42;;;;;;;15.88;14.18;;;;;;;;;;5054304;28;24850;-59
2021/12/10 06:06:07;;;;;;;15.43;13.73;;;;;;;;;;5056655;28;24509;-59
2021/12/10 06:08:33;;;;;;;15.53;13.93;;;;;;;;;;5060444;28;25054;-60
2021/12/10 06:10:59;;;;;;;16.10;14.27;;;;;;;;;;5061461;28;24476;-59
2021/12/10 06:13:26;;;;;;;15.98;14.25;;;;;;;;;;5060448;28;24425;-59
2021/12/10 06:15:52;;;;;;;14.95;13.45;;;;;;;;;;5055648;28;24426;-59
2021/12/10 06:18:17;;;;;;;15.40;13.80;;;;;;;;;;5058619;28;24426;-60
2021/12/10 06:20:44;;;;;;;16.77;14.30;;;;;;;;;;5062550;28;24456;-59
2021/12/10 06:23:10;;;;;;;15.95;14.00;;;;;;;;;;5064269;28;24399;-60
2021/12/10 06:25:35;;;;;;;16.33;14.50;;;;;;;;;;5057006;28;25144;-59
2021/12/10 06:28:02;;;;;;;16.50;14.80;;;;;;;;;;5063152;28;24419;-59
2021/12/10 06:30:30;;;;;;;17.52;14.52;;;;;;;;;;5059954;28;24397;-59
2021/12/10 06:32:55;;;;;;;16.97;14.47;;;;;;;;;;5064735;28;26139;-59
2021/12/10 06:35:22;;;;;;;16.20;14.50;;;;;;;;;;5063413;28;24990;-59
2021/12/10 06:37:47;;;;;;;16.88;15.07;;;;;;;;;;5043463;28;24410;-59
2021/12/10 06:40:15;;;;;;;16.47;14.70;;;;;;;;;;5045236;28;24487;-58
2021/12/10 06:42:40;;;;;;;16.55;14.13;;;;;;;;;;5043434;28;24439;-58
2021/12/10 06:45:07;;;;;;;18.40;15.90;;;;;;;;;;5054549;28;24458;-60
2021/12/10 06:47:32;;;;;;;16.55;14.73;;;;;;;;;;5063300;28;24411;-61
2021/12/10 06:49:58;;;;;;;16.90;15.10;;;;;;;;;;5062699;28;24484;-61
2021/12/10 06:52:24;;;;;;;16.10;14.37;;;;;;;;;;5063676;28;24445;-61
2021/12/10 06:54:50;;;;;;;17.63;15.55;;;;;;;;;;5055910;28;24496;-61
2021/12/10 06:57:15;;;;;;;17.03;14.90;;;;;;;;;;5045140;28;25184;-60
2021/12/10 06:59:40;;;;;;;16.50;14.67;;;;;;;;;;5044971;28;24923;-58
2021/12/10 07:02:05;;;;;;;16.73;14.48;;;;;;;;;;5042222;28;25557;-58
2021/12/10 07:04:32;;;;;;;17.50;15.03;;;;;;;;;;5044948;28;24399;-58
2021/12/10 07:06:57;;;;;;;16.73;14.93;;;;;;;;;;5062754;28;24418;-59
2021/12/10 07:09:23;;;;;;;16.23;14.53;;;;;;;;;;5063609;28;24773;-59
2021/12/10 07:11:50;;;;;;;17.20;15.40;;;;;;;;;;5060533;28;24426;-61
2021/12/10 07:14:15;;;;;;;16.95;15.10;;;;;;;;;;5043078;28;24438;-59
2021/12/10 07:16:40;;;;;;;18.57;16.57;;;;;;;;;;5058477;28;24422;-59
2021/12/10 07:19:06;;;;;;;17.13;15.23;;;;;;;;;;5060531;28;24415;-59
2021/12/10 07:21:32;;;;;;;19.73;16.60;;;;;;;;;;5064904;28;24989;-60
2021/12/10 07:23:59;;;;;;;17.60;15.70;;;;;;;;;;5052355;28;24458;-61
2021/12/10 07:26:24;;;;;;;18.67;15.65;;;;;;;;;;5052862;28;25081;-61
2021/12/10 07:28:49;;;;;;;18.07;16.17;;;;;;;;;;5057954;28;24443;-61
2021/12/10 07:31:15;;;;;;;17.85;16.05;;;;;;;;;;5063050;28;24422;-61
2021/12/10 07:33:41;;;;;;;20.95;17.15;;;;;;;;;;5046027;28;24437;-60
2021/12/10 07:36:06;;;;;;;18.55;15.82;;;;;;;;;;5055441;28;24765;-61
2021/12/10 07:38:32;;;;;;;19.00;16.10;;;;;;;;;;5060802;28;25264;-61
2021/12/10 07:40:57;;;;;;;17.13;15.32;;;;;;;;;;5057014;28;24444;-61
2021/12/10 07:43:22;;;;;;;18.50;16.23;;;;;;;;;;5062399;28;24418;-61
2021/12/10 07:45:49;;;;;;;19.60;16.67;;;;;;;;;;5062396;28;24460;-61
2021/12/10 07:48:18;;;;;;;20.38;16.80;;;;;;;;;;5061499;28;24422;-61
2021/12/10 07:50:50;;;;;;;18.23;15.90;;;;;;;;;;5054780;28;24968;-61
2021/12/10 07:53:18;;;;;;;18.98;16.42;;;;;;;;;;5058862;28;24982;-61
2021/12/10 07:55:43;;;;;;;19.45;16.30;;;;;;;;;;5061764;28;24525;-60
2021/12/10 07:58:08;;;;;;;19.63;16.60;;;;;;;;;;5059817;28;25094;-61
2021/12/10 08:00:34;;;;;;;20.20;17.70;;;;;;;;;;5061557;28;24406;-61
2021/12/10 08:02:59;;;;;;;19.60;17.10;;;;;;;;;;5058047;28;24844;-61
2021/12/10 08:05:25;;;;;;;21.67;18.80;;;;;;;;;;5045228;28;24439;-60
2021/12/10 08:07:52;;;;;;;21.40;17.67;;;;;;;;;;5047932;28;24555;-61
2021/12/10 08:10:17;;;;;;;19.88;17.80;;;;;;;;;;5063253;28;24489;-61
2021/12/10 08:12:43;;;;;;;20.83;17.60;;;;;;;;;;5063178;28;24514;-61
2021/12/10 08:15:09;;;;;;;18.73;16.73;;;;;;;;;;5047156;28;24416;-60
2021/12/10 08:17:35;;;;;;;20.35;16.70;;;;;;;;;;5040097;28;24518;-61
2021/12/10 08:20:01;;;;;;;18.60;16.60;;;;;;;;;;5042997;28;24487;-61
2021/12/10 08:22:26;;;;;;;19.40;16.65;;;;;;;;;;5043227;28;24749;-61
2021/12/10 08:24:51;;;;;;;20.20;17.17;;;;;;;;;;5039083;28;24434;-61
2021/12/10 08:27:17;;;;;;;20.93;16.80;;;;;;;;;;5059520;28;25245;-61
2021/12/10 08:29:44;;;;;;;18.90;16.07;;;;;;;;;;5060219;28;24500;-61
2021/12/10 08:32:12;;;;;;;19.95;16.20;;;;;;;;;;5062747;28;24459;-60
2021/12/10 08:34:38;;;;;;;18.77;16.75;;;;;;;;;;5062710;28;24784;-61
2021/12/10 08:37:03;;;;;;;19.87;16.97;;;;;;;;;;5060258;28;24931;-59
2021/12/10 08:39:28;;;;;;;20.27;16.83;;;;;;;;;;5055659;28;24445;-58
2021/12/10 08:41:56;;;;;;;19.47;17.00;;;;;;;;;;5060819;28;24824;-59
2021/12/10 08:44:22;;;;;;;21.58;17.52;;;;;;;;;;5062550;28;24675;-59
2021/12/10 08:46:47;;;;;;;22.05;18.08;;;;;;;;;;5048448;28;24985;-59
2021/12/10 08:49:13;;;;;;;20.67;16.93;;;;;;;;;;5043668;28;24464;-59
2021/12/10 08:51:40;;;;;;;20.00;17.17;;;;;;;;;;5061859;28;24940;-59
2021/12/10 08:54:06;;;;;;;18.15;15.85;;;;;;;;;;5057666;28;24461;-62
2021/12/10 08:56:32;;;;;;;20.50;16.97;;;;;;;;;;5059114;28;24590;-59
2021/12/10 08:58:58;;;;;;;20.20;16.73;;;;;;;;;;5058650;28;24493;-60
2021/12/10 09:01:32;;;;;;;21.38;17.23;;;;;;;;;;5061093;28;24735;-60
2021/12/10 09:03:59;;;;;;;22.80;17.33;;;;;;;;;;5047365;28;24919;-60
2021/12/10 09:06:27;;;;;;;21.58;17.70;;;;;;;;;;5041324;28;24525;-59
2021/12/10 09:08:53;;;;;;;19.48;16.52;;;;;;;;;;5036965;28;24449;-60
2021/12/10 09:11:18;;;;;;;21.48;17.42;;;;;;;;;;5050706;28;24525;-61
2021/12/10 09:13:44;;;;;;;19.15;16.63;;;;;;;;;;5053676;28;24510;-60
2021/12/10 09:16:16;;;;;;;20.90;16.90;;;;;;;;;;5042275;28;24443;-60
2021/12/10 09:18:41;;;;;;;19.38;17.00;;;;;;;;;;5042420;28;24534;-61
2021/12/10 09:21:08;;;;;;;23.13;17.50;;;;;;;;;;5044447;28;25006;-60
2021/12/10 09:23:33;;;;;;;21.08;16.88;;;;;;;;;;5061894;28;24556;-61
2021/12/10 09:26:00;;;;;;;20.27;17.02;;;;;;;;;;5039992;28;24502;-60
2021/12/10 09:28:25;;;;;;;21.55;18.00;;;;;;;;;;5042030;28;24534;-61
2021/12/10 09:30:52;;;;;;;20.90;16.97;;;;;;;;;;5042637;28;24474;-60
2021/12/10 09:33:17;;;;;;;19.83;16.93;;;;;;;;;;5058692;28;24995;-61
2021/12/10 09:35:43;;;;;;;22.03;16.97;;;;;;;;;;5047940;28;24416;-61
2021/12/10 09:38:08;;;;;;;21.03;17.30;;;;;;;;;;5042228;28;24953;-62
2021/12/10 09:40:36;;;;;;;20.97;16.43;;;;;;;;;;5045155;28;24996;-59
2021/12/10 09:43:02;;;;;;;23.35;17.95;;;;;;;;;;5064391;28;24936;-58
2021/12/10 09:45:28;;;;;;;20.45;16.70;;;;;;;;;;5063035;28;24593;-59
2021/12/10 09:47:53;;;;;;;22.20;17.05;;;;;;;;;;5042458;28;24399;-62
2021/12/10 09:50:20;;;;;;;21.00;16.60;;;;;;;;;;5045904;28;25026;-59
2021/12/10 09:52:45;;;;;;;20.23;16.60;;;;;;;;;;5040515;28;24438;-59
2021/12/10 09:55:13;;;;;;;21.57;17.40;;;;;;;;;;5044903;28;24427;-59
2021/12/10 09:57:38;;;;;;;24.00;20.00;;;;;;;;;;5046008;28;24407;-59
2021/12/10 10:00:07;;;;;;;23.83;17.80;;;;;;;;;;5044305;28;24832;-59
2021/12/10 10:02:32;;;;;;;26.92;20.73;;;;;;;;;;5041848;28;25238;-60
2021/12/10 10:04:57;;;;;;;32.43;23.63;;;;;;;;;;5040090;28;24434;-60
2021/12/10 10:07:27;;;;;;;23.90;19.50;;;;;;;;;;5063581;28;24415;-59
2021/12/10 10:09:54;;;;;;;28.25;20.48;;;;;;;;;;5063702;28;24394;-60
2021/12/10 10:12:22;;;;;;;31.00;23.38;;;;;;;;;;5064989;28;24524;-60
2021/12/10 10:14:47;;;;;;;27.02;20.58;;;;;;;;;;5046174;28;24498;-60
2021/12/10 10:17:12;;;;;;;30.50;21.50;;;;;;;;;;5056011;28;24855;-60
2021/12/10 10:19:39;;;;;;;23.83;19.52;;;;;;;;;;5061880;28;25146;-60
2021/12/10 10:22:06;;;;;;;28.88;22.13;;;;;;;;;;5065278;28;24403;-60
2021/12/10 10:24:31;;;;;;;28.05;22.27;;;;;;;;;;5065374;28;24409;-61
2021/12/10 10:27:03;;;;;;;33.30;21.57;;;;;;;;;;5049055;28;24435;-60
2021/12/10 10:29:32;;;;;;;27.23;21.63;;;;;;;;;;5053801;28;24427;-60
2021/12/10 10:31:59;;;;;;;26.53;20.57;;;;;;;;;;5063404;28;24403;-60
2021/12/10 10:34:26;;;;;;;21.20;17.30;;;;;;;;;;5064759;28;24419;-60
2021/12/10 10:36:51;;;;;;;19.50;16.05;;;;;;;;;;5053935;28;24589;-60
2021/12/10 10:39:19;;;;;;;19.23;16.40;;;;;;;;;;5046504;28;24687;-61
2021/12/10 10:41:45;;;;;;;21.90;17.58;;;;;;;;;;5059394;28;24394;-60
2021/12/10 10:44:11;;;;;;;23.10;18.17;;;;;;;;;;5064593;28;24776;-60
2021/12/10 10:46:36;;;;;;;21.07;17.30;;;;;;;;;;5058488;28;24955;-60
2021/12/10 10:49:01;;;;;;;25.20;20.03;;;;;;;;;;5055115;28;25068;-60
2021/12/10 10:51:37;;;;;;;19.37;16.67;;;;;;;;;;5053034;28;25050;-60
2021/12/10 10:54:05;;;;;;;17.60;15.00;;;;;;;;;;5042311;28;24446;-60
2021/12/10 10:56:33;;;;;;;20.35;16.40;;;;;;;;;;5045930;28;24445;-60
2021/12/10 10:59:01;;;;;;;20.83;16.45;;;;;;;;;;5042598;28;24392;-61
2021/12/10 11:01:44;;;;;;;21.00;17.58;;;;;;;;;;5041309;28;25194;-60
2021/12/10 11:04:15;;;;;;;22.90;17.05;;;;;;;;;;5040521;28;24399;-60
2021/12/10 11:06:43;;;;;;;21.52;16.55;;;;;;;;;;5043871;28;24426;-62
2021/12/10 11:09:14;;;;;;;21.20;16.80;;;;;;;;;;5061025;28;24415;-59
2021/12/10 11:11:45;;;;;;;20.55;16.48;;;;;;;;;;5064592;28;24409;-62
2021/12/10 11:14:12;;;;;;;19.88;15.40;;;;;;;;;;5062295;28;24540;-60
2021/12/10 11:16:40;;;;;;;22.48;17.27;;;;;;;;;;5043091;28;25424;-60
2021/12/10 11:19:10;;;;;;;21.85;17.08;;;;;;;;;;5057260;28;24515;-60
2021/12/10 11:21:37;;;;;;;21.10;16.83;;;;;;;;;;5064441;28;24438;-61
2021/12/10 11:24:23;;;;;;;21.33;17.50;;;;;;;;;;5062228;28;24540;-60
2021/12/10 11:27:03;;;;;;;22.65;16.55;;;;;;;;;;5056106;28;24437;-61
2021/12/10 11:29:37;;;;;;;20.30;16.10;;;;;;;;;;5044468;28;24464;-60
2021/12/10 11:32:14;;;;;;;21.90;17.50;;;;;;;;;;5044207;28;24396;-60
2021/12/10 11:34:48;;;;;;;24.27;17.70;;;;;;;;;;5043992;28;24806;-60
2021/12/10 11:37:14;;;;;;;21.53;17.30;;;;;;;;;;5040337;28;24419;-60
2021/12/10 11:39:40;;;;;;;19.92;15.75;;;;;;;;;;5045594;28;25030;-60
2021/12/10 11:42:26;;;;;;;20.95;16.00;;;;;;;;;;5042020;28;24411;-59
2021/12/10 11:45:05;;;;;;;22.60;17.67;;;;;;;;;;5041902;28;24410;-59
2021/12/10 11:47:41;;;;;;;21.35;17.42;;;;;;;;;;5043849;28;24391;-59
2021/12/10 11:50:16;;;;;;;20.10;16.38;;;;;;;;;;5041530;28;24504;-60
2021/12/10 11:52:41;;;;;;;21.20;16.40;;;;;;;;;;5040284;28;24407;-60
2021/12/10 11:55:09;;;;;;;22.00;17.07;;;;;;;;;;5038143;28;24982;-60
2021/12/10 11:57:37;;;;;;;23.77;17.73;;;;;;;;;;5041783;28;24415;-60
2021/12/10 12:00:10;;;;;;;19.73;14.70;;;;;;;;;;5046216;28;24549;-59
2021/12/10 12:02:44;;;;;;;20.50;15.73;;;;;;;;;;5054350;28;24438;-60
2021/12/10 12:05:11;;;;;;;22.50;17.17;;;;;;;;;;5059676;28;24928;-60
2021/12/10 12:07:40;;;;;;;23.15;17.58;;;;;;;;;;5059492;28;24409;-59
2021/12/10 12:10:12;;;;;;;22.75;16.58;;;;;;;;;;5056327;28;25305;-59
2021/12/10 12:12:45;;;;;;;23.05;16.80;;;;;;;;;;5039818;28;24458;-59
2021/12/10 12:15:22;;;;;;;22.05;17.33;;;;;;;;;;5044470;28;24868;-59
2021/12/10 12:17:52;;;;;;;21.00;16.00;;;;;;;;;;5061022;28;24514;-59
2021/12/10 12:20:22;;;;;;;21.83;15.90;;;;;;;;;;5064571;28;24505;-59
2021/12/10 12:25:52;;;;;;;22.75;17.58;;;;;;;;;;5041499;28;24817;-59
2021/12/10 12:28:18;;;;;;;22.10;16.48;;;;;;;;;;5046540;28;24422;-59
2021/12/10 12:30:51;;;;;;;21.52;16.05;;;;;;;;;;5059219;28;24397;-59
2021/12/10 12:33:16;;;;;;;23.17;17.85;;;;;;;;;;5041032;28;24538;-59
2021/12/10 12:35:41;;;;;;;20.10;16.40;;;;;;;;;;5045540;28;24514;-60
2021/12/10 12:38:09;;;;;;;22.93;17.77;;;;;;;;;;5058581;28;25344;-59
2021/12/10 12:40:36;;;;;;;20.73;16.77;;;;;;;;;;5060356;28;24545;-59
2021/12/10 12:43:05;;;;;;;24.15;17.63;;;;;;;;;;5060687;28;24402;-59
2021/12/10 12:45:31;;;;;;;22.02;16.90;;;;;;;;;;5063267;28;24399;-59
2021/12/10 12:47:57;;;;;;;22.70;17.55;;;;;;;;;;5052262;28;24974;-59
2021/12/10 12:50:23;;;;;;;23.33;17.47;;;;;;;;;;5062160;28;24502;-60
2021/12/10 12:52:56;;;;;;;22.73;17.25;;;;;;;;;;5061089;28;24387;-59
2021/12/10 12:55:34;;;;;;;22.83;17.40;;;;;;;;;;5060736;28;24506;-58
2021/12/10 12:58:04;;;;;;;17.67;15.10;;;;;;;;;;5054599;28;24481;-61
2021/12/10 13:00:29;;;;;;;19.02;15.30;;;;;;;;;;5053330;28;24407;-61
2021/12/10 13:02:57;;;;;;;19.23;15.30;;;;;;;;;;5060846;28;24405;-61
2021/12/10 13:05:41;;;;;;;19.50;15.55;;;;;;;;;;5058695;28;24876;-61
2021/12/10 13:08:08;;;;;;;18.85;14.88;;;;;;;;;;5058817;28;24513;-61
2021/12/10 13:10:37;;;;;;;21.95;16.05;;;;;;;;;;5042485;28;24407;-60
2021/12/10 13:13:14;;;;;;;21.20;18.05;;;;;;;;;;5039780;28;24465;-61
2021/12/10 13:15:46;;;;;;;20.50;16.33;;;;;;;;;;5043007;28;24418;-61
2021/12/10 13:18:13;;;;;;;18.60;16.60;;;;;;;;;;5054413;28;24426;-61
2021/12/10 13:20:42;;;;;;;22.23;18.85;;;;;;;;;;5059572;28;24912;-61
2021/12/10 13:23:09;;;;;;;19.95;17.80;;;;;;;;;;5062521;28;24414;-61
2021/12/10 13:25:35;;;;;;;21.25;16.10;;;;;;;;;;5060486;28;24410;-62
2021/12/10 13:28:02;;;;;;;21.27;17.17;;;;;;;;;;5048277;28;24765;-61
2021/12/10 13:30:30;;;;;;;20.42;17.70;;;;;;;;;;5038643;28;24422;-59
2021/12/10 13:32:57;;;;;;;20.83;17.67;;;;;;;;;;5040252;28;24427;-60
2021/12/10 13:35:23;;;;;;;21.70;18.45;;;;;;;;;;5047114;28;24421;-60
2021/12/10 13:37:50;;;;;;;23.83;18.55;;;;;;;;;;5054681;28;24484;-59
2021/12/10 13:40:16;;;;;;;22.75;18.30;;;;;;;;;;5058325;28;24464;-59
2021/12/10 13:42:41;;;;;;;23.20;18.95;;;;;;;;;;5060436;28;24395;-59
2021/12/10 13:45:07;;;;;;;28.80;23.80;;;;;;;;;;5053647;28;24426;-59
2021/12/10 13:47:41;;;;;;;23.08;19.70;;;;;;;;;;5041909;28;24427;-59
2021/12/10 13:50:10;;;;;;;22.13;17.75;;;;;;;;;;5041869;28;24430;-59
2021/12/10 13:52:38;;;;;;;18.13;16.27;;;;;;;;;;5059920;28;24548;-59
2021/12/10 13:55:11;;;;;;;23.17;19.13;;;;;;;;;;5055599;28;24418;-58
2021/12/10 13:57:37;;;;;;;21.60;18.08;;;;;;;;;;5060142;28;24458;-59
2021/12/10 14:00:03;;;;;;;22.45;19.92;;;;;;;;;;5060180;28;25295;-58
2021/12/10 14:02:33;;;;;;;19.05;17.08;;;;;;;;;;5060120;28;24414;-59
2021/12/10 14:04:59;;;;;;;22.30;18.60;;;;;;;;;;5059488;28;24419;-59
2021/12/10 14:07:24;;;;;;;21.05;18.52;;;;;;;;;;5037044;28;24430;-59
2021/12/10 14:09:52;;;;;;;22.75;17.10;;;;;;;;;;5036272;28;24437;-59
2021/12/10 14:12:31;;;;;;;19.57;17.13;;;;;;;;;;5041805;28;24396;-58
2021/12/10 14:14:58;;;;;;;22.50;18.95;;;;;;;;;;5044657;28;25042;-59
2021/12/10 14:17:25;;;;;;;19.58;17.48;;;;;;;;;;5057908;28;24462;-58
2021/12/10 14:19:51;;;;;;;21.55;18.15;;;;;;;;;;5052442;28;24857;-59
2021/12/10 14:22:34;;;;;;;20.58;17.20;;;;;;;;;;5044469;28;24415;-59
2021/12/10 14:24:59;;;;;;;21.95;19.65;;;;;;;;;;5043617;28;24395;-58
2021/12/10 14:27:26;;;;;;;21.87;19.47;;;;;;;;;;5048307;28;24483;-59